Latest Weather Observations for Strathalbyn

IDS60901

Issued at 10:41 pm CST Friday 22 May 2015 (issued every 10 minutes, with the page automatically refreshed every 10 minutes)

About weather observations | Map of Adelaide area stations | Latest observations for Adelaide area | Other Formats
Station Details ID: 024580 Name: STRATHALBYN RACECOURSE Lat: -35.28 Lon: 138.89 Height: 58.0 m
Data from the previous 72 hours. | See also: Recent months at Strathalbyn
Date/Time
CST
Tmp

°C
App
Tmp
°C
Dew
Point
°C
Rel
Hum
%
Delta-T

°C
Wind Press
QNH
hPa
Press
MSL
hPa
Rain
since
9 am
mm
Dir
 
Spd
km/h
Gust
km/h
Spd
kts
Gust
kts
22/10:30pm 10.6 8.2 6.9 78 1.7 ESE 9 13 5 7 1032.1 - 0.0
22/10:00pm 10.7 8.6 6.8 77 1.8 S 7 11 4 6 1032.2 - 0.0
22/09:30pm 10.2 9.6 7.3 82 1.4 CALM 0 0 0 0 1032.2 - 0.0
22/09:00pm 10.2 9.6 7.3 82 1.4 CALM 0 0 0 0 1031.9 1032.0 0.0
22/08:30pm 10.2 8.4 7.3 82 1.4 S 6 7 3 4 1032.1 - 0.0
22/08:00pm 9.9 9.2 7.0 82 1.4 CALM 0 0 0 0 1032.0 - 0.0
22/07:30pm 10.5 9.8 7.0 79 1.7 CALM 0 0 0 0 1031.8 - 0.0
22/07:00pm 10.9 8.9 7.2 78 1.8 S 7 9 4 5 1031.7 - 0.0
22/06:30pm 10.9 9.1 7.2 78 1.8 S 6 7 3 4 1031.7 - 0.0
22/06:00pm 11.0 8.6 6.9 76 1.9 S 9 11 5 6 1031.4 1031.5 0.0
22/05:30pm 11.7 8.7 6.2 69 2.6 S 11 15 6 8 1031.5 - 0.0
22/05:00pm 11.6 8.4 6.7 72 2.3 S 13 15 7 8 1031.6 - 0.0
22/04:30pm 12.3 7.9 6.6 68 2.7 S 19 22 10 12 1031.6 - 0.0
22/04:00pm 12.6 8.1 6.2 65 3.0 SSE 19 24 10 13 1031.5 - 0.0
22/03:30pm 12.8 8.3 6.2 64 3.1 SSE 19 26 10 14 1031.2 - 0.0
22/03:00pm 13.3 9.5 7.7 69 2.7 S 17 24 9 13 1031.1 1031.2 0.0
22/02:30pm 13.5 9.1 6.6 63 3.3 S 19 26 10 14 1031.1 - 0.0
22/02:00pm 13.2 8.9 7.2 67 2.9 SSE 19 26 10 14 1031.2 - 0.0
22/01:30pm 13.3 8.8 6.9 65 3.1 SSE 20 26 11 14 1031.2 - 0.0
22/01:00pm 13.2 9.5 6.5 64 3.2 SSE 15 22 8 12 1031.3 - 0.0
22/12:30pm 13.4 9.9 7.2 66 3.0 SE 15 20 8 11 1031.4 - 0.0
22/12:00pm 13.2 9.5 6.5 64 3.2 SE 15 20 8 11 1031.7 1031.8 0.0
22/11:30am 13.2 9.7 7.0 66 3.0 SE 15 20 8 11 1032.1 - 0.0
22/11:00am 12.5 9.0 7.0 69 2.7 SE 15 20 8 11 1032.4 - 0.0
22/10:30am 12.5 9.8 7.4 71 2.5 SE 11 15 6 8 1032.5 - 0.0
22/10:00am 12.2 9.9 7.3 72 2.4 SSW 9 13 5 7 1032.4 - 0.0
22/09:30am 11.5 9.6 7.6 77 1.9 SSW 7 9 4 5 1032.1 - 0.0
22/09:00am 10.1 8.4 7.5 84 1.2 SSW 6 9 3 5 1032.1 1032.2 2.8
22/08:30am 9.6 7.7 7.7 88 0.9 SSW 7 9 4 5 1032.1 - 2.8
22/08:00am 9.0 7.2 8.1 94 0.4 SSW 7 9 4 5 1031.9 - 2.8
22/07:30am 7.6 5.5 6.7 94 0.4 SSW 7 9 4 5 1031.5 - 2.8
22/07:00am 8.1 7.4 6.9 92 0.6 CALM 0 0 0 0 1031.3 - 2.8
22/06:30am 9.0 8.5 7.9 93 0.5 CALM 0 4 0 2 1030.8 - 2.8
22/06:00am 9.0 7.8 8.1 94 0.4 SSW 4 6 2 3 1030.6 1030.7 2.8
22/05:30am 8.7 7.1 7.8 94 0.4 SSW 6 7 3 4 1030.3 - 2.6
22/05:00am 8.8 8.3 7.9 94 0.4 CALM 0 0 0 0 1030.0 - 2.6
22/04:30am 8.8 7.2 7.9 94 0.4 SSW 6 7 3 4 1029.7 - 2.6
22/04:00am 8.9 7.1 8.0 94 0.4 SSW 7 9 4 5 1029.5 - 2.6
22/03:30am 9.1 7.5 8.2 94 0.4 SSW 6 7 3 4 1029.5 - 2.6
22/03:00am 9.0 7.4 8.1 94 0.4 SSW 6 7 3 4 1029.5 1029.6 2.6
22/02:30am 9.4 7.7 8.5 94 0.4 SSW 7 11 4 6 1029.4 - 2.6
22/02:00am 9.4 7.7 8.3 93 0.5 SSW 7 9 4 5 1029.4 - 2.6
22/01:30am 10.2 8.4 9.3 94 0.4 SSW 9 13 5 7 1029.3 - 2.6
22/01:00am 10.2 8.3 9.1 93 0.5 SSW 9 11 5 6 1029.3 - 2.6
22/12:30am 10.2 8.7 9.0 92 0.6 SSW 7 11 4 6 1029.4 - 2.4
22/12:00am 10.1 8.5 8.7 91 0.7 SW 7 11 4 6 1029.3 1029.4 2.4
 
Date/Time
CST
Tmp

°C
App
Tmp
°C
Dew
Point
°C
Rel
Hum
%
Delta-T

°C
Wind Press
QNH
hPa
Press
MSL
hPa
Rain
since
9 am
mm
Dir
 
Spd
km/h
Gust
km/h
Spd
kts
Gust
kts
21/11:30pm 10.3 8.7 8.9 91 0.7 SSW 7 7 4 4 1029.5 - 2.4
21/11:00pm 10.1 8.4 8.5 90 0.8 SSW 7 9 4 5 1029.4 - 1.6
21/10:30pm 10.3 9.6 8.7 90 0.8 SSW 2 6 1 3 1029.4 - 1.6
21/10:00pm 10.3 8.7 8.7 90 0.8 SSW 7 9 4 5 1029.5 - 1.6
21/09:30pm 10.2 7.8 8.5 89 0.8 SSW 11 13 6 7 1029.5 - 1.4
21/09:00pm 10.4 8.8 8.7 89 0.8 SSW 7 11 4 6 1029.4 1029.5 1.4
21/08:30pm 10.2 8.1 8.3 88 0.9 SSW 9 11 5 6 1029.3 - 1.4
21/08:00pm 10.2 8.1 8.3 88 0.9 SSW 9 11 5 6 1029.1 - 1.4
21/07:30pm 9.8 7.6 7.9 88 0.9 SSW 9 11 5 6 1028.8 - 1.4
21/07:00pm 10.0 7.9 8.1 88 0.9 SSW 9 13 5 7 1028.8 - 1.4
21/06:30pm 10.1 8.0 8.2 88 0.9 SSW 9 13 5 7 1028.7 - 1.2
21/06:00pm 9.7 7.4 7.5 86 1.0 SSW 9 11 5 6 1028.2 1028.2 1.2
21/05:30pm 10.1 7.8 7.3 83 1.3 SSW 9 11 5 6 1028.0 - 1.2
21/05:00pm 10.6 7.6 7.7 82 1.4 SSW 13 15 7 8 1027.8 - 1.2
21/04:30pm 11.4 9.4 8.8 84 1.3 S 9 11 5 6 1027.6 - 1.2
21/04:00pm 10.9 8.2 8.8 87 1.0 SSW 13 19 7 10 1027.5 - 1.2
21/03:30pm 12.0 9.0 7.5 74 2.2 S 13 17 7 9 1027.1 - 1.0
21/03:00pm 12.2 7.9 6.9 70 2.5 S 19 24 10 13 1027.0 1027.0 1.0
21/02:30pm 12.4 10.5 8.9 79 1.8 SSE 9 19 5 10 1026.9 - 1.0
21/02:00pm 11.0 6.0 8.2 83 1.4 S 24 37 13 20 1027.0 - 0.8
21/01:30pm 12.9 11.0 7.6 70 2.6 SE 7 11 4 6 1027.1 - 0.8
21/01:00pm 12.0 10.3 8.3 78 1.8 SE 7 11 4 6 1027.3 - 0.8
21/12:30pm 12.2 10.4 8.1 76 2.0 ESE 7 11 4 6 1027.5 - 0.8
21/12:00pm 11.9 9.7 7.8 76 2.0 ESE 9 13 5 7 1027.8 1027.8 0.8
21/11:30am 10.7 8.9 8.1 84 1.3 ESE 7 9 4 5 1028.2 - 0.8
21/11:00am 10.7 8.4 7.4 80 1.6 ESE 9 13 5 7 1028.5 - 0.6
21/10:30am 10.7 8.4 7.4 80 1.6 ESE 9 11 5 6 1028.3 - 0.6
21/10:00am 10.2 8.4 8.1 87 1.0 ESE 7 9 4 5 1028.3 - 0.6
21/09:30am 8.8 6.8 6.9 88 0.9 ESE 7 9 4 5 1028.2 - 0.4
21/09:00am 9.3 8.2 6.9 85 1.1 SSE 2 9 1 5 1027.7 1027.7 8.4
21/08:30am 9.1 8.0 6.9 86 1.0 SSE 2 6 1 3 1027.4 - 8.4
21/08:00am 8.8 6.8 7.1 89 0.8 SSE 7 9 4 5 1027.1 - 8.4
21/07:30am 8.5 6.7 7.0 90 0.7 SSE 6 7 3 4 1026.7 - 8.4
21/07:00am 8.2 5.8 6.8 91 0.6 SSE 9 11 5 6 1026.3 - 8.4
21/06:30am 8.4 7.7 7.0 91 0.7 CALM 0 0 0 0 1026.0 - 8.2
21/06:00am 8.2 5.8 7.0 92 0.6 SSE 9 11 5 6 1025.8 1025.8 8.2
21/05:30am 8.4 6.4 7.0 91 0.7 SSE 7 9 4 5 1025.5 - 8.2
21/05:00am 8.4 6.6 7.0 91 0.7 SSE 6 9 3 5 1025.4 - 8.0
21/04:30am 8.5 6.7 7.1 91 0.7 SSE 6 7 3 4 1025.2 - 8.0
21/04:00am 8.5 6.7 7.1 91 0.7 SSE 6 7 3 4 1025.1 - 8.0
21/03:30am 8.6 6.6 7.2 91 0.7 SSE 7 9 4 5 1025.0 - 8.0
21/03:00am 8.6 6.2 7.2 91 0.7 SSE 9 13 5 7 1024.9 1024.9 8.0
21/02:30am 9.0 7.4 7.8 92 0.6 SSE 6 13 3 7 1024.9 - 8.0
21/02:00am 9.3 8.1 8.2 93 0.5 SSE 4 7 2 4 1024.6 - 7.0
21/01:30am 9.3 8.9 8.1 92 0.6 CALM 0 0 0 0 1024.5 - 6.8
21/01:00am 9.4 9.0 8.3 93 0.5 CALM 0 4 0 2 1024.3 - 6.6
21/12:30am 9.3 7.6 8.2 93 0.5 SSE 7 9 4 5 1024.1 - 6.2
21/12:00am 9.4 8.6 8.3 93 0.5 SSE 2 6 1 3 1024.0 1024.0 6.2
 
Date/Time
CST
Tmp

°C
App
Tmp
°C
Dew
Point
°C
Rel
Hum
%
Delta-T

°C
Wind Press
QNH
hPa
Press
MSL
hPa
Rain
since
9 am
mm
Dir
 
Spd
km/h
Gust
km/h
Spd
kts
Gust
kts
20/11:30pm 9.6 7.6 8.5 93 0.5 SSE 9 11 5 6 1023.8 - 6.0
20/11:00pm 9.6 7.2 8.7 94 0.4 SSE 11 15 6 8 1023.7 - 5.8
20/10:30pm 9.9 7.6 9.0 94 0.4 SE 11 17 6 9 1023.9 - 3.8
20/10:00pm 9.8 7.0 8.7 93 0.5 SSE 13 20 7 11 1023.7 - 3.6
20/09:30pm 10.1 8.2 9.2 94 0.4 SSE 9 13 5 7 1023.6 - 3.0
20/09:00pm 9.9 6.3 8.5 91 0.7 SSE 17 20 9 11 1023.4 1023.4 2.8
20/08:30pm 9.9 5.8 8.7 92 0.6 S 20 26 11 14 1023.0 - 2.4
20/08:00pm 10.1 5.0 9.2 94 0.4 S 26 35 14 19 1022.7 - 1.4
20/07:30pm 10.4 6.4 9.0 91 0.7 S 20 28 11 15 1022.5 - 0.2
20/07:00pm 10.9 7.3 8.5 85 1.2 SSW 17 22 9 12 1022.1 - 0.2
20/06:30pm 10.9 6.3 8.3 84 1.3 SSW 22 28 12 15 1021.7 - 0.2
20/06:00pm 11.3 7.3 8.2 81 1.5 SW 19 24 10 13 1021.3 1021.3 0.2
20/05:30pm 11.1 7.0 7.8 80 1.6 SSW 19 24 10 13 1020.8 - 0.2
20/05:00pm 11.7 6.2 7.6 76 2.0 SSW 26 35 14 19 1020.4 - 0.2
20/04:30pm 12.3 7.5 7.2 71 2.5 SSW 22 30 12 16 1020.1 - 0.2
20/04:00pm 12.3 6.5 6.1 66 2.9 SSW 26 32 14 17 1019.8 - 0.2
20/03:30pm 13.1 7.2 6.0 62 3.4 SSW 26 35 14 19 1019.6 - 0.2
20/03:00pm 13.2 7.5 6.5 64 3.2 SSW 26 35 14 19 1019.2 1019.3 0.2
20/02:30pm 13.7 7.3 6.8 63 3.3 SSW 30 39 16 21 1019.0 - 0.2
20/02:00pm 13.6 7.3 7.6 67 3.0 SSW 30 39 16 21 1018.9 - 0.2
20/01:30pm 13.3 7.7 7.3 67 2.9 SSW 26 33 14 18 1018.9 - 0.2
20/01:00pm 13.3 7.6 6.9 65 3.1 SSW 26 37 14 20 1018.7 - 0.2
20/12:30pm 13.0 7.6 8.1 72 2.4 S 26 33 14 18 1018.9 - 0.2
20/12:00pm 12.7 7.6 7.8 72 2.4 SSW 24 32 13 17 1019.2 1019.3 0.2
20/11:30am 12.6 7.1 7.7 72 2.4 SW 26 33 14 18 1019.2 - 0.2
20/11:00am 13.3 9.5 9.2 76 2.1 S 19 24 10 13 1019.2 - 0.2
20/10:30am 12.8 9.8 9.3 79 1.8 SW 15 22 8 12 1019.1 - 0.0
20/10:00am 11.8 8.7 8.8 82 1.5 SW 15 20 8 11 1018.7 - 0.0
20/09:30am 11.9 9.2 8.9 82 1.5 SW 13 24 7 13 1018.3 - 0.0
20/09:00am 11.3 7.8 8.7 84 1.3 SSW 17 22 9 12 1018.1 1018.2 2.6
20/08:30am 11.1 8.7 8.8 86 1.1 WSW 11 15 6 8 1017.6 - 2.6
20/08:00am 10.6 7.5 8.7 88 0.9 SSW 15 20 8 11 1017.1 - 2.2
20/07:30am 10.6 6.1 8.7 88 0.9 SW 22 35 12 19 1016.5 - 1.4
20/07:00am 10.7 6.7 8.3 85 1.2 W 19 24 10 13 1015.8 - 0.8
20/06:30am 10.8 7.2 8.2 84 1.3 WSW 17 26 9 14 1015.6 - 0.4
20/06:00am 10.9 7.7 8.3 84 1.3 SW 15 22 8 12 1015.1 1015.2 0.4
20/05:30am 11.6 8.8 8.5 81 1.5 WSW 13 20 7 11 1014.6 - 0.4
20/05:00am 11.2 8.7 8.4 83 1.4 SW 11 17 6 9 1014.1 - 0.4
20/04:30am 11.4 8.6 8.4 82 1.5 WSW 13 19 7 10 1013.8 - 0.4
20/04:00am 11.6 8.8 8.6 82 1.5 WSW 13 17 7 9 1013.5 - 0.4
20/03:30am 12.0 8.9 8.8 81 1.6 W 15 24 8 13 1013.2 - 0.4
20/03:00am 11.7 9.3 8.6 81 1.5 W 11 15 6 8 1013.0 1013.0 0.4
20/02:30am 12.3 9.2 8.8 79 1.8 W 15 20 8 11 1012.9 - 0.4
20/02:00am 12.8 9.4 9.3 79 1.8 W 17 28 9 15 1012.6 - 0.4
20/01:30am 12.5 9.8 9.0 79 1.8 W 13 20 7 11 1012.2 - 0.4
20/01:00am 13.1 9.8 9.4 78 1.9 W 17 26 9 14 1012.0 - 0.4
20/12:30am 13.4 10.9 9.8 79 1.9 W 13 24 7 13 1011.7 - 0.4
20/12:00am 13.7 9.9 9.9 78 2.0 W 20 28 11 15 1011.3 1011.3 0.4
 
Date/Time
CST
Tmp

°C
App
Tmp
°C
Dew
Point
°C
Rel
Hum
%
Delta-T

°C
Wind Press
QNH
hPa
Press
MSL
hPa
Rain
since
9 am
mm
Dir
 
Spd
km/h
Gust
km/h
Spd
kts
Gust
kts
19/11:30pm 13.9 10.1 9.9 77 2.1 WSW 20 32 11 17 1011.1 - 0.4
19/11:00pm 14.3 9.4 9.9 75 2.3 W 26 37 14 20 1010.9 - 0.4

Latest Capital City Observations: Canberra | Sydney | Melbourne | Brisbane | Adelaide | Perth | Hobart | Darwin

Other Formats:

Comma delimited format used in spreadsheet applications
http://www.bom.gov.au/fwo/IDS60901/IDS60901.94814.axf

JavaScript Object Notation format (JSON) in row-major order
http://www.bom.gov.au/fwo/IDS60901/IDS60901.94814.json